sensor_id;sensor_type;location;lat;lon;timestamp;temperature;humidity
10441;DHT22;5268;49.346;9.522;2022-08-01T03:24:39;19.60;80.90
10441;DHT22;5268;49.346;9.522;2022-08-01T03:29:42;19.60;82.80
10441;DHT22;5268;49.346;9.522;2022-08-01T03:34:46;19.50;81.70
10441;DHT22;5268;49.346;9.522;2022-08-01T03:39:54;19.40;82.80
10441;DHT22;5268;49.346;9.522;2022-08-01T03:44:59;19.40;84.00
10441;DHT22;5268;49.346;9.522;2022-08-01T03:50:06;19.40;83.10
10441;DHT22;5268;49.346;9.522;2022-08-01T03:55:11;19.40;83.90
10441;DHT22;5268;49.346;9.522;2022-08-01T04:00:14;19.30;84.30
10441;DHT22;5268;49.346;9.522;2022-08-01T04:05:19;19.30;83.70
10441;DHT22;5268;49.346;9.522;2022-08-01T04:10:22;19.30;84.30
10441;DHT22;5268;49.346;9.522;2022-08-01T04:15:24;19.20;83.20
10441;DHT22;5268;49.346;9.522;2022-08-01T04:20:26;19.20;83.40
10441;DHT22;5268;49.346;9.522;2022-08-01T04:25:33;19.10;82.80
10441;DHT22;5268;49.346;9.522;2022-08-01T04:30:36;19.10;82.90
10441;DHT22;5268;49.346;9.522;2022-08-01T04:35:40;19.00;85.20
10441;DHT22;5268;49.346;9.522;2022-08-01T04:40:44;19.10;85.00
10441;DHT22;5268;49.346;9.522;2022-08-01T04:45:47;19.10;84.50
10441;DHT22;5268;49.346;9.522;2022-08-01T04:50:49;19.20;83.70
10441;DHT22;5268;49.346;9.522;2022-08-01T04:55:53;19.20;85.00
10441;DHT22;5268;49.346;9.522;2022-08-01T05:00:56;19.30;86.70
10441;DHT22;5268;49.346;9.522;2022-08-01T05:05:58;19.30;85.00
10441;DHT22;5268;49.346;9.522;2022-08-01T05:11:01;19.30;84.30
10441;DHT22;5268;49.346;9.522;2022-08-01T05:16:03;19.30;86.10
10441;DHT22;5268;49.346;9.522;2022-08-01T05:21:07;19.30;85.50
10441;DHT22;5268;49.346;9.522;2022-08-01T05:26:11;19.40;85.80
10441;DHT22;5268;49.346;9.522;2022-08-01T05:31:14;19.50;88.10
10441;DHT22;5268;49.346;9.522;2022-08-01T05:36:16;19.50;87.90
10441;DHT22;5268;49.346;9.522;2022-08-01T05:41:19;19.60;85.30
10441;DHT22;5268;49.346;9.522;2022-08-01T05:46:21;19.70;89.50
10441;DHT22;5268;49.346;9.522;2022-08-01T05:51:23;19.80;87.50
10441;DHT22;5268;49.346;9.522;2022-08-01T05:56:27;19.90;86.80
10441;DHT22;5268;49.346;9.522;2022-08-01T06:01:29;20.10;85.80
10441;DHT22;5268;49.346;9.522;2022-08-01T06:06:31;20.20;85.00
10441;DHT22;5268;49.346;9.522;2022-08-01T06:11:34;20.40;85.40
10441;DHT22;5268;49.346;9.522;2022-08-01T06:16:36;20.50;84.90
10441;DHT22;5268;49.346;9.522;2022-08-01T06:21:39;20.70;83.80
10441;DHT22;5268;49.346;9.522;2022-08-01T06:26:42;20.90;84.70
10441;DHT22;5268;49.346;9.522;2022-08-01T06:31:44;21.00;85.40
10441;DHT22;5268;49.346;9.522;2022-08-01T06:36:46;21.20;84.70
10441;DHT22;5268;49.346;9.522;2022-08-01T06:41:50;21.40;84.50
10441;DHT22;5268;49.346;9.522;2022-08-01T06:46:52;21.60;84.70
10441;DHT22;5268;49.346;9.522;2022-08-01T06:51:53;21.70;84.10
10441;DHT22;5268;49.346;9.522;2022-08-01T06:56:57;21.90;84.00
10441;DHT22;5268;49.346;9.522;2022-08-01T07:01:59;22.10;84.40
10441;DHT22;5268;49.346;9.522;2022-08-01T07:07:01;22.30;83.90
10441;DHT22;5268;49.346;9.522;2022-08-01T07:12:05;22.50;84.20
10441;DHT22;5268;49.346;9.522;2022-08-01T07:17:07;22.80;85.20
10441;DHT22;5268;49.346;9.522;2022-08-01T07:22:09;23.00;84.30
10441;DHT22;5268;49.346;9.522;2022-08-01T07:27:12;23.30;86.40
10441;DHT22;5268;49.346;9.522;2022-08-01T07:32:14;23.80;89.00
10441;DHT22;5268;49.346;9.522;2022-08-01T07:37:17;24.50;86.90
10441;DHT22;5268;49.346;9.522;2022-08-01T07:42:20;24.80;87.80
10441;DHT22;5268;49.346;9.522;2022-08-01T07:47:24;25.10;85.80
10441;DHT22;5268;49.346;9.522;2022-08-01T07:52:26;25.30;85.00
10441;DHT22;5268;49.346;9.522;2022-08-01T07:57:29;25.50;86.80
10441;DHT22;5268;49.346;9.522;2022-08-01T08:02:31;25.40;85.50
10441;DHT22;5268;49.346;9.522;2022-08-01T08:07:33;25.50;86.10
10441;DHT22;5268;49.346;9.522;2022-08-01T08:12:37;25.80;85.00
10441;DHT22;5268;49.346;9.522;2022-08-01T08:17:39;26.20;85.70
10441;DHT22;5268;49.346;9.522;2022-08-01T08:22:41;26.60;85.20
10441;DHT22;5268;49.346;9.522;2022-08-01T08:27:45;27.00;84.50
10441;DHT22;5268;49.346;9.522;2022-08-01T08:32:47;27.40;84.50
10441;DHT22;5268;49.346;9.522;2022-08-01T08:37:49;27.80;83.90
10441;DHT22;5268;49.346;9.522;2022-08-01T08:42:53;28.20;83.10
10441;DHT22;5268;49.346;9.522;2022-08-01T08:47:56;28.40;82.30
10441;DHT22;5268;49.346;9.522;2022-08-01T08:52:59;28.20;81.60
10441;DHT22;5268;49.346;9.522;2022-08-01T08:58:04;28.00;81.70
10441;DHT22;5268;49.346;9.522;2022-08-01T09:03:06;27.80;81.70
10441;DHT22;5268;49.346;9.522;2022-08-01T09:08:08;27.70;81.60
10441;DHT22;5268;49.346;9.522;2022-08-01T09:13:13;27.50;80.80
10441;DHT22;5268;49.346;9.522;2022-08-01T09:18:30;27.40;81.20
10441;DHT22;5268;49.346;9.522;2022-08-01T09:23:33;27.30;81.40
10441;DHT22;5268;49.346;9.522;2022-08-01T09:28:37;27.30;81.50
10441;DHT22;5268;49.346;9.522;2022-08-01T09:33:51;27.30;81.10
10441;DHT22;5268;49.346;9.522;2022-08-01T09:38:54;27.30;81.30
10441;DHT22;5268;49.346;9.522;2022-08-01T09:43:58;27.20;81.90
10441;DHT22;5268;49.346;9.522;2022-08-01T09:49:02;27.60;81.50
10441;DHT22;5268;49.346;9.522;2022-08-01T09:54:05;27.90;81.20
10441;DHT22;5268;49.346;9.522;2022-08-01T09:59:09;28.20;80.80
10441;DHT22;5268;49.346;9.522;2022-08-01T10:04:13;28.40;81.30
10441;DHT22;5268;49.346;9.522;2022-08-01T10:09:26;28.80;81.10
10441;DHT22;5268;49.346;9.522;2022-08-01T10:14:30;29.40;79.60
10441;DHT22;5268;49.346;9.522;2022-08-01T10:19:34;29.30;79.10
10441;DHT22;5268;49.346;9.522;2022-08-01T10:24:39;29.30;77.90
10441;DHT22;5268;49.346;9.522;2022-08-01T10:29:47;29.30;78.50
10441;DHT22;5268;49.346;9.522;2022-08-01T10:34:49;29.40;78.50
10441;DHT22;5268;49.346;9.522;2022-08-01T10:39:53;29.40;77.50
10441;DHT22;5268;49.346;9.522;2022-08-01T10:44:57;29.60;79.20
10441;DHT22;5268;49.346;9.522;2022-08-01T10:50:04;30.00;77.20
10441;DHT22;5268;49.346;9.522;2022-08-01T10:55:08;30.10;77.10
10441;DHT22;5268;49.346;9.522;2022-08-01T11:00:17;30.20;76.30
10441;DHT22;5268;49.346;9.522;2022-08-01T11:05:21;30.00;75.70
10441;DHT22;5268;49.346;9.522;2022-08-01T11:10:27;29.90;75.70
10441;DHT22;5268;49.346;9.522;2022-08-01T11:15:33;30.00;76.30
10441;DHT22;5268;49.346;9.522;2022-08-01T11:20:35;30.10;75.30
10441;DHT22;5268;49.346;9.522;2022-08-01T11:26:06;29.90;76.80
10441;DHT22;5268;49.346;9.522;2022-08-01T11:31:27;29.90;75.70
10441;DHT22;5268;49.346;9.522;2022-08-01T11:36:29;29.90;76.50
10441;DHT22;5268;49.346;9.522;2022-08-01T11:41:32;29.80;75.30
10441;DHT22;5268;49.346;9.522;2022-08-01T11:46:47;30.10;75.70
10441;DHT22;5268;49.346;9.522;2022-08-01T11:51:57;30.30;77.20
10441;DHT22;5268;49.346;9.522;2022-08-01T11:57:00;30.40;73.80
10441;DHT22;5268;49.346;9.522;2022-08-01T12:02:04;30.50;74.20
10441;DHT22;5268;49.346;9.522;2022-08-01T12:07:16;30.40;74.70
10441;DHT22;5268;49.346;9.522;2022-08-01T12:12:19;30.20;73.90
10441;DHT22;5268;49.346;9.522;2022-08-01T12:17:29;30.00;74.80
10441;DHT22;5268;49.346;9.522;2022-08-01T12:22:31;29.90;73.10
10441;DHT22;5268;49.346;9.522;2022-08-01T12:27:33;29.80;74.20
10441;DHT22;5268;49.346;9.522;2022-08-01T12:32:38;30.10;74.50
10441;DHT22;5268;49.346;9.522;2022-08-01T12:37:41;30.60;75.10
10441;DHT22;5268;49.346;9.522;2022-08-01T12:42:46;30.90;73.40
10441;DHT22;5268;49.346;9.522;2022-08-01T12:47:51;30.90;73.30
10441;DHT22;5268;49.346;9.522;2022-08-01T12:52:54;30.80;73.90
10441;DHT22;5268;49.346;9.522;2022-08-01T12:58:04;30.60;74.10
10441;DHT22;5268;49.346;9.522;2022-08-01T13:03:10;30.60;74.00
10441;DHT22;5268;49.346;9.522;2022-08-01T13:08:14;30.70;74.70
10441;DHT22;5268;49.346;9.522;2022-08-01T13:13:18;30.80;74.40
10441;DHT22;5268;49.346;9.522;2022-08-01T13:18:26;30.60;73.80
10441;DHT22;5268;49.346;9.522;2022-08-01T13:23:28;30.50;74.40
10441;DHT22;5268;49.346;9.522;2022-08-01T13:28:30;30.40;74.30
10441;DHT22;5268;49.346;9.522;2022-08-01T13:33:45;30.40;73.90
10441;DHT22;5268;49.346;9.522;2022-08-01T13:38:47;30.40;73.00
10441;DHT22;5268;49.346;9.522;2022-08-01T13:44:06;30.20;68.10
10441;DHT22;5268;49.346;9.522;2022-08-01T13:49:11;30.20;71.80
10441;DHT22;5268;49.346;9.522;2022-08-01T13:54:13;30.20;71.90
10441;DHT22;5268;49.346;9.522;2022-08-01T13:59:15;30.20;71.90
10441;DHT22;5268;49.346;9.522;2022-08-01T14:04:18;30.20;72.70
10441;DHT22;5268;49.346;9.522;2022-08-01T14:12:53;30.30;72.40
10441;DHT22;5268;49.346;9.522;2022-08-01T14:17:57;30.30;72.60
10441;DHT22;5268;49.346;9.522;2022-08-01T14:23:00;30.20;70.80
10441;DHT22;5268;49.346;9.522;2022-08-01T14:28:03;30.10;73.20
10441;DHT22;5268;49.346;9.522;2022-08-01T14:33:06;30.10;72.70
10441;DHT22;5268;49.346;9.522;2022-08-01T14:38:08;30.20;71.90
10441;DHT22;5268;49.346;9.522;2022-08-01T14:43:12;30.30;72.50
10441;DHT22;5268;49.346;9.522;2022-08-01T14:48:14;30.50;71.70
10441;DHT22;5268;49.346;9.522;2022-08-01T14:53:15;30.60;72.30
10441;DHT22;5268;49.346;9.522;2022-08-01T14:58:19;30.70;71.50
10441;DHT22;5268;49.346;9.522;2022-08-01T15:03:21;30.70;71.50
10441;DHT22;5268;49.346;9.522;2022-08-01T15:08:23;30.60;71.60
10441;DHT22;5268;49.346;9.522;2022-08-01T15:13:27;30.50;71.40
10441;DHT22;5268;49.346;9.522;2022-08-01T15:18:28;30.40;71.60
10441;DHT22;5268;49.346;9.522;2022-08-01T15:23:30;30.30;71.40
10441;DHT22;5268;49.346;9.522;2022-08-01T15:28:34;30.30;71.70
10441;DHT22;5268;49.346;9.522;2022-08-01T15:33:36;30.30;72.10
10441;DHT22;5268;49.346;9.522;2022-08-01T15:38:38;30.40;71.00
10441;DHT22;5268;49.346;9.522;2022-08-01T15:43:41;30.40;71.80
10441;DHT22;5268;49.346;9.522;2022-08-01T15:48:43;30.40;71.00
10441;DHT22;5268;49.346;9.522;2022-08-01T15:53:45;30.40;71.20
10441;DHT22;5268;49.346;9.522;2022-08-01T15:58:49;30.30;71.50
10441;DHT22;5268;49.346;9.522;2022-08-01T16:03:52;30.30;71.70
10441;DHT22;5268;49.346;9.522;2022-08-01T16:08:54;30.20;71.90
10441;DHT22;5268;49.346;9.522;2022-08-01T16:13:58;30.20;71.70
10441;DHT22;5268;49.346;9.522;2022-08-01T16:19:00;30.10;71.70
10441;DHT22;5268;49.346;9.522;2022-08-01T16:24:05;30.00;71.80
10441;DHT22;5268;49.346;9.522;2022-08-01T16:29:08;30.00;71.80
10441;DHT22;5268;49.346;9.522;2022-08-01T16:34:10;30.00;71.70
10441;DHT22;5268;49.346;9.522;2022-08-01T16:39:13;30.00;71.90
10441;DHT22;5268;49.346;9.522;2022-08-01T16:44:16;29.90;72.20
10441;DHT22;5268;49.346;9.522;2022-08-01T16:49:18;29.90;71.70
10441;DHT22;5268;49.346;9.522;2022-08-01T16:54:20;29.80;71.20
10441;DHT22;5268;49.346;9.522;2022-08-01T16:59:23;29.70;71.60
10441;DHT22;5268;49.346;9.522;2022-08-01T17:04:25;29.60;71.70
10441;DHT22;5268;49.346;9.522;2022-08-01T17:09:27;29.60;71.90
10441;DHT22;5268;49.346;9.522;2022-08-01T17:14:31;29.60;71.00
10441;DHT22;5268;49.346;9.522;2022-08-01T17:19:33;29.50;70.60
10441;DHT22;5268;49.346;9.522;2022-08-01T17:24:35;29.30;71.30
10441;DHT22;5268;49.346;9.522;2022-08-01T17:29:39;29.20;71.70
10441;DHT22;5268;49.346;9.522;2022-08-01T17:34:41;29.10;71.80
10441;DHT22;5268;49.346;9.522;2022-08-01T17:39:43;29.00;71.70
10441;DHT22;5268;49.346;9.522;2022-08-01T17:44:46;29.00;71.90
10441;DHT22;5268;49.346;9.522;2022-08-01T17:49:49;28.90;72.00
10441;DHT22;5268;49.346;9.522;2022-08-01T17:54:51;28.90;72.00
10441;DHT22;5268;49.346;9.522;2022-08-01T17:59:55;28.80;72.00
10441;DHT22;5268;49.346;9.522;2022-08-01T18:04:57;28.70;72.00
10441;DHT22;5268;49.346;9.522;2022-08-01T18:09:59;28.70;72.90
10441;DHT22;5268;49.346;9.522;2022-08-01T18:15:03;28.60;72.10
10441;DHT22;5268;49.346;9.522;2022-08-01T18:20:06;28.50;72.20
10441;DHT22;5268;49.346;9.522;2022-08-01T18:25:09;28.40;72.10
10441;DHT22;5268;49.346;9.522;2022-08-01T18:30:12;28.30;72.20
10441;DHT22;5268;49.346;9.522;2022-08-01T18:35:14;28.20;72.30
10441;DHT22;5268;49.346;9.522;2022-08-01T18:40:16;28.10;72.30
10441;DHT22;5268;49.346;9.522;2022-08-01T18:45:20;28.00;72.40
10441;DHT22;5268;49.346;9.522;2022-08-01T18:50:22;27.90;72.40
10441;DHT22;5268;49.346;9.522;2022-08-01T18:55:26;27.70;72.50
10441;DHT22;5268;49.346;9.522;2022-08-01T19:00:29;27.60;72.50
10441;DHT22;5268;49.346;9.522;2022-08-01T19:05:31;27.50;72.50
10441;DHT22;5268;49.346;9.522;2022-08-01T19:10:33;27.40;72.60
10441;DHT22;5268;49.346;9.522;2022-08-01T19:15:37;27.30;72.80
10441;DHT22;5268;49.346;9.522;2022-08-01T19:20:39;27.20;73.10
10441;DHT22;5268;49.346;9.522;2022-08-01T19:25:42;27.10;72.90
10441;DHT22;5268;49.346;9.522;2022-08-01T19:30:46;27.00;73.20
10441;DHT22;5268;49.346;9.522;2022-08-01T19:35:51;26.90;74.70
10441;DHT22;5268;49.346;9.522;2022-08-01T19:40:53;26.70;75.40
10441;DHT22;5268;49.346;9.522;2022-08-01T19:45:57;26.50;74.90
10441;DHT22;5268;49.346;9.522;2022-08-01T19:50:59;26.30;76.20
10441;DHT22;5268;49.346;9.522;2022-08-01T19:56:07;26.10;75.40
10441;DHT22;5268;49.346;9.522;2022-08-01T20:01:12;26.10;75.00
10441;DHT22;5268;49.346;9.522;2022-08-01T20:06:15;26.00;79.80
10441;DHT22;5268;49.346;9.522;2022-08-01T20:11:17;25.80;79.30
10441;DHT22;5268;49.346;9.522;2022-08-01T20:16:21;25.70;79.30
10441;DHT22;5268;49.346;9.522;2022-08-01T20:21:25;25.70;78.70
10441;DHT22;5268;49.346;9.522;2022-08-01T20:26:29;25.60;79.10
10441;DHT22;5268;49.346;9.522;2022-08-01T20:31:35;25.50;86.10
10441;DHT22;5268;49.346;9.522;2022-08-01T20:36:40;25.50;79.70
10441;DHT22;5268;49.346;9.522;2022-08-01T20:41:42;25.40;79.10
10441;DHT22;5268;49.346;9.522;2022-08-01T20:46:46;25.30;80.90
10441;DHT22;5268;49.346;9.522;2022-08-01T20:51:49;25.20;82.20
10441;DHT22;5268;49.346;9.522;2022-08-01T20:56:56;25.10;89.10
10441;DHT22;5268;49.346;9.522;2022-08-01T21:02:06;25.00;81.50
10441;DHT22;5268;49.346;9.522;2022-08-01T21:07:17;24.80;81.80
10441;DHT22;5268;49.346;9.522;2022-08-01T21:12:26;24.80;82.30
10441;DHT22;5268;49.346;9.522;2022-08-01T21:17:35;24.70;80.70
10441;DHT22;5268;49.346;9.522;2022-08-01T21:22:49;24.50;81.80
10441;DHT22;5268;49.346;9.522;2022-08-01T21:27:54;24.40;81.80
